sensor_id;sensor_type;location;lat;lon;timestamp;pressure;altitude;pressure_sealevel;temperature;humidity
64388;BME280;50709;52.648;4.764;2023-04-21T00:01:18;101790.78;;;13.30;60.48
64388;BME280;50709;52.648;4.764;2023-04-21T00:03:43;101782.84;;;13.19;61.16
64388;BME280;50709;52.648;4.764;2023-04-21T00:06:09;101776.53;;;12.92;61.53
64388;BME280;50709;52.648;4.764;2023-04-21T00:08:35;101776.94;;;13.56;61.58
64388;BME280;50709;52.648;4.764;2023-04-21T00:11:07;101762.00;;;13.36;61.10
64388;BME280;50709;52.648;4.764;2023-04-21T00:13:36;101764.81;;;13.79;60.54
64388;BME280;50709;52.648;4.764;2023-04-21T00:16:03;101755.75;;;13.20;62.11
64388;BME280;50709;52.648;4.764;2023-04-21T00:18:28;101763.00;;;13.69;60.22
64388;BME280;50709;52.648;4.764;2023-04-21T00:20:54;101734.97;;;13.56;61.93
64388;BME280;50709;52.648;4.764;2023-04-21T00:23:20;101755.09;;;13.55;61.32
64388;BME280;50709;52.648;4.764;2023-04-21T00:25:46;101764.53;;;13.27;63.17
64388;BME280;50709;52.648;4.764;2023-04-21T00:28:11;101755.84;;;13.36;63.05
64388;BME280;50709;52.648;4.764;2023-04-21T00:30:36;101762.63;;;13.03;63.82
64388;BME280;50709;52.648;4.764;2023-04-21T00:33:02;101728.56;;;13.07;63.29
64388;BME280;50709;52.648;4.764;2023-04-21T00:35:27;101745.31;;;13.34;64.40
64388;BME280;50709;52.648;4.764;2023-04-21T00:37:53;101748.94;;;13.49;63.50
64388;BME280;50709;52.648;4.764;2023-04-21T00:40:18;101752.28;;;13.26;63.93
64388;BME280;50709;52.648;4.764;2023-04-21T00:42:44;101732.09;;;13.16;64.63
64388;BME280;50709;52.648;4.764;2023-04-21T00:45:10;101722.03;;;12.48;65.82
64388;BME280;50709;52.648;4.764;2023-04-21T00:47:35;101728.81;;;13.44;64.97
64388;BME280;50709;52.648;4.764;2023-04-21T00:50:01;101704.59;;;12.52;67.29
64388;BME280;50709;52.648;4.764;2023-04-21T00:52:28;101706.59;;;12.90;66.20
64388;BME280;50709;52.648;4.764;2023-04-21T00:54:53;101705.03;;;13.20;65.15
64388;BME280;50709;52.648;4.764;2023-04-21T00:57:20;101703.47;;;13.50;65.53
64388;BME280;50709;52.648;4.764;2023-04-21T00:59:45;101694.56;;;13.27;65.66
64388;BME280;50709;52.648;4.764;2023-04-21T01:02:11;101701.59;;;13.30;65.83
64388;BME280;50709;52.648;4.764;2023-04-21T01:04:38;101704.66;;;12.58;67.03
64388;BME280;50709;52.648;4.764;2023-04-21T01:07:05;101681.97;;;12.63;67.62
64388;BME280;50709;52.648;4.764;2023-04-21T01:09:32;101669.94;;;12.99;66.94
64388;BME280;50709;52.648;4.764;2023-04-21T01:12:06;101664.94;;;13.41;65.31
64388;BME280;50709;52.648;4.764;2023-04-21T01:14:32;101671.81;;;13.23;66.80
64388;BME280;50709;52.648;4.764;2023-04-21T01:16:57;101671.94;;;13.40;65.89
64388;BME280;50709;52.648;4.764;2023-04-21T01:19:28;101679.69;;;13.19;67.25
64388;BME280;50709;52.648;4.764;2023-04-21T01:21:54;101677.06;;;13.22;66.52
64388;BME280;50709;52.648;4.764;2023-04-21T01:24:23;101654.22;;;12.96;66.87
64388;BME280;50709;52.648;4.764;2023-04-21T01:26:51;101641.16;;;13.07;67.45
64388;BME280;50709;52.648;4.764;2023-04-21T01:29:17;101655.28;;;13.37;67.14
64388;BME280;50709;52.648;4.764;2023-04-21T01:31:42;101643.06;;;13.39;66.98
64388;BME280;50709;52.648;4.764;2023-04-21T01:34:08;101654.44;;;13.41;66.18
64388;BME280;50709;52.648;4.764;2023-04-21T01:36:35;101664.09;;;13.57;66.69
64388;BME280;50709;52.648;4.764;2023-04-21T01:39:01;101653.63;;;13.68;66.39
64388;BME280;50709;52.648;4.764;2023-04-21T01:41:27;101653.56;;;13.46;66.65
64388;BME280;50709;52.648;4.764;2023-04-21T01:43:52;101649.22;;;13.55;66.82
64388;BME280;50709;52.648;4.764;2023-04-21T01:46:19;101648.25;;;13.29;67.40
64388;BME280;50709;52.648;4.764;2023-04-21T01:48:44;101654.44;;;13.36;67.53
64388;BME280;50709;52.648;4.764;2023-04-21T01:51:10;101654.44;;;13.45;67.54
64388;BME280;50709;52.648;4.764;2023-04-21T01:53:36;101649.88;;;13.03;67.62
64388;BME280;50709;52.648;4.764;2023-04-21T01:56:01;101646.44;;;13.15;68.71
64388;BME280;50709;52.648;4.764;2023-04-21T01:58:26;101639.56;;;13.38;67.61
64388;BME280;50709;52.648;4.764;2023-04-21T02:00:52;101643.06;;;13.40;67.58
64388;BME280;50709;52.648;4.764;2023-04-21T02:03:17;101642.91;;;13.11;68.46
64388;BME280;50709;52.648;4.764;2023-04-21T02:05:43;101634.06;;;12.89;69.10
64388;BME280;50709;52.648;4.764;2023-04-21T02:08:08;101631.63;;;13.29;68.62
64388;BME280;50709;52.648;4.764;2023-04-21T02:10:33;101626.41;;;13.34;68.49
64388;BME280;50709;52.648;4.764;2023-04-21T02:12:59;101632.56;;;13.45;67.98
64388;BME280;50709;52.648;4.764;2023-04-21T02:15:25;101629.97;;;13.53;68.39
64388;BME280;50709;52.648;4.764;2023-04-21T02:17:50;101619.47;;;13.46;67.68
64388;BME280;50709;52.648;4.764;2023-04-21T02:20:16;101634.34;;;13.49;67.96
64388;BME280;50709;52.648;4.764;2023-04-21T02:22:41;101622.13;;;13.51;67.62
64388;BME280;50709;52.648;4.764;2023-04-21T02:25:07;101621.13;;;13.23;68.14
64388;BME280;50709;52.648;4.764;2023-04-21T02:27:32;101634.31;;;13.38;68.31
64388;BME280;50709;52.648;4.764;2023-04-21T02:29:58;101624.72;;;13.40;68.48
64388;BME280;50709;52.648;4.764;2023-04-21T02:32:23;101611.59;;;13.42;68.43
64388;BME280;50709;52.648;4.764;2023-04-21T02:34:49;101628.19;;;13.36;67.61
64388;BME280;50709;52.648;4.764;2023-04-21T02:37:14;101613.34;;;13.49;68.17
64388;BME280;50709;52.648;4.764;2023-04-21T02:39:40;101606.34;;;13.43;67.94
64388;BME280;50709;52.648;4.764;2023-04-21T02:42:05;101597.59;;;13.51;68.33
64388;BME280;50709;52.648;4.764;2023-04-21T02:44:30;101588.78;;;13.32;68.36
64388;BME280;50709;52.648;4.764;2023-04-21T02:46:56;101588.84;;;13.38;68.45
64388;BME280;50709;52.648;4.764;2023-04-21T02:49:21;101592.34;;;13.49;68.01
64388;BME280;50709;52.648;4.764;2023-04-21T02:51:46;101592.34;;;13.44;67.64
64388;BME280;50709;52.648;4.764;2023-04-21T02:54:12;101592.34;;;13.52;68.00
64388;BME280;50709;52.648;4.764;2023-04-21T02:56:37;101588.88;;;13.58;68.06
64388;BME280;50709;52.648;4.764;2023-04-21T02:59:03;101596.72;;;13.45;68.30
64388;BME280;50709;52.648;4.764;2023-04-21T03:01:28;101594.09;;;13.45;68.09
64388;BME280;50709;52.648;4.764;2023-04-21T03:03:53;101579.16;;;13.30;68.77
64388;BME280;50709;52.648;4.764;2023-04-21T03:06:19;101587.13;;;13.54;68.47
64388;BME280;50709;52.648;4.764;2023-04-21T03:08:45;101593.25;;;13.54;67.40
64388;BME280;50709;52.648;4.764;2023-04-21T03:11:10;101587.81;;;13.00;68.55
64388;BME280;50709;52.648;4.764;2023-04-21T03:13:35;101592.19;;;13.07;69.49
64388;BME280;50709;52.648;4.764;2023-04-21T03:16:01;101587.91;;;13.31;68.46
64388;BME280;50709;52.648;4.764;2023-04-21T03:18:26;101586.88;;;12.86;69.90
64388;BME280;50709;52.648;4.764;2023-04-21T03:20:58;101586.16;;;13.30;68.98
64388;BME280;50709;52.648;4.764;2023-04-21T03:23:23;101592.84;;;12.63;69.52
64388;BME280;50709;52.648;4.764;2023-04-21T03:25:48;101590.28;;;12.68;69.41
64388;BME280;50709;52.648;4.764;2023-04-21T03:28:14;101578.75;;;12.38;70.02
64388;BME280;50709;52.648;4.764;2023-04-21T03:30:41;101596.31;;;12.53;71.29
64388;BME280;50709;52.648;4.764;2023-04-21T03:33:06;101592.06;;;12.75;70.44
64388;BME280;50709;52.648;4.764;2023-04-21T03:35:31;101598.19;;;12.75;71.19
64388;BME280;50709;52.648;4.764;2023-04-21T03:37:58;101595.59;;;12.82;70.51
64388;BME280;50709;52.648;4.764;2023-04-21T03:40:24;101602.41;;;12.47;71.83
64388;BME280;50709;52.648;4.764;2023-04-21T03:42:49;101595.59;;;12.83;71.31
64388;BME280;50709;52.648;4.764;2023-04-21T03:45:15;101599.72;;;12.41;71.37
64388;BME280;50709;52.648;4.764;2023-04-21T03:47:40;101587.44;;;12.32;72.22
64388;BME280;50709;52.648;4.764;2023-04-21T03:50:06;101591.78;;;12.30;72.92
64388;BME280;50709;52.648;4.764;2023-04-21T03:52:32;101581.63;;;11.67;74.66
64388;BME280;50709;52.648;4.764;2023-04-21T03:54:57;101595.09;;;12.01;73.33
64388;BME280;50709;52.648;4.764;2023-04-21T03:57:23;101593.34;;;12.06;73.81
64388;BME280;50709;52.648;4.764;2023-04-21T03:59:48;101595.50;;;11.57;74.32
64388;BME280;50709;52.648;4.764;2023-04-21T04:02:14;101595.75;;;11.85;74.21
64388;BME280;50709;52.648;4.764;2023-04-21T04:04:39;101559.22;;;11.95;73.61
64388;BME280;50709;52.648;4.764;2023-04-21T04:07:04;101596.88;;;12.07;73.81
64388;BME280;50709;52.648;4.764;2023-04-21T04:09:32;101573.94;;;11.84;74.60
64388;BME280;50709;52.648;4.764;2023-04-21T04:11:58;101588.09;;;12.03;74.29
64388;BME280;50709;52.648;4.764;2023-04-21T04:14:24;101605.22;;;11.69;75.08
64388;BME280;50709;52.648;4.764;2023-04-21T04:17:11;101602.56;;;11.67;75.39
64388;BME280;50709;52.648;4.764;2023-04-21T04:19:36;101599.09;;;11.67;75.83
64388;BME280;50709;52.648;4.764;2023-04-21T04:22:02;101562.03;;;11.25;76.50
64388;BME280;50709;52.648;4.764;2023-04-21T04:24:27;101586.50;;;11.30;77.07
64388;BME280;50709;52.648;4.764;2023-04-21T04:26:53;101577.22;;;11.58;76.97
64388;BME280;50709;52.648;4.764;2023-04-21T04:29:20;101584.94;;;11.48;77.72
64388;BME280;50709;52.648;4.764;2023-04-21T04:31:47;101593.19;;;11.91;76.33
64388;BME280;50709;52.648;4.764;2023-04-21T04:34:12;101577.03;;;11.43;76.60
64388;BME280;50709;52.648;4.764;2023-04-21T04:36:39;101521.25;;;11.44;76.78
64388;BME280;50709;52.648;4.764;2023-04-21T04:39:06;101555.63;;;11.86;75.22
64388;BME280;50709;52.648;4.764;2023-04-21T04:41:32;101552.34;;;12.05;74.71
64388;BME280;50709;52.648;4.764;2023-04-21T04:43:58;101557.59;;;12.05;73.94
64388;BME280;50709;52.648;4.764;2023-04-21T04:46:24;101575.84;;;11.99;74.56
64388;BME280;50709;52.648;4.764;2023-04-21T04:48:50;101575.94;;;12.10;75.08
64388;BME280;50709;52.648;4.764;2023-04-21T04:51:15;101576.69;;;11.95;74.96
64388;BME280;50709;52.648;4.764;2023-04-21T04:53:41;101560.75;;;11.72;75.77
64388;BME280;50709;52.648;4.764;2023-04-21T04:56:06;101596.28;;;11.50;75.97
64388;BME280;50709;52.648;4.764;2023-04-21T04:58:32;101576.53;;;11.80;75.38
64388;BME280;50709;52.648;4.764;2023-04-21T05:00:57;101587.00;;;11.80;75.29
64388;BME280;50709;52.648;4.764;2023-04-21T05:03:23;101584.09;;;11.49;76.22
64388;BME280;50709;52.648;4.764;2023-04-21T05:05:48;101589.34;;;11.50;75.57
64388;BME280;50709;52.648;4.764;2023-04-21T05:08:14;101589.00;;;11.18;77.55
64388;BME280;50709;52.648;4.764;2023-04-21T05:10:39;101576.47;;;11.75;76.40
64388;BME280;50709;52.648;4.764;2023-04-21T05:13:05;101575.00;;;12.02;74.08
64388;BME280;50709;52.648;4.764;2023-04-21T05:15:30;101584.28;;;11.69;75.71
64388;BME280;50709;52.648;4.764;2023-04-21T05:17:56;101582.06;;;12.14;75.56
64388;BME280;50709;52.648;4.764;2023-04-21T05:20:21;101564.59;;;12.09;74.70
64388;BME280;50709;52.648;4.764;2023-04-21T05:22:47;101595.22;;;12.21;74.18
64388;BME280;50709;52.648;4.764;2023-04-21T05:25:12;101593.16;;;11.86;74.42
64388;BME280;50709;52.648;4.764;2023-04-21T05:27:41;101588.16;;;12.11;74.11
64388;BME280;50709;52.648;4.764;2023-04-21T05:30:07;101592.56;;;12.14;73.56
64388;BME280;50709;52.648;4.764;2023-04-21T05:32:33;101604.72;;;12.07;74.18
64388;BME280;50709;52.648;4.764;2023-04-21T05:34:58;101603.09;;;12.23;73.62
64388;BME280;50709;52.648;4.764;2023-04-21T05:37:25;101591.78;;;12.28;73.86
64388;BME280;50709;52.648;4.764;2023-04-21T05:39:50;101583.16;;;12.50;73.39
64388;BME280;50709;52.648;4.764;2023-04-21T05:42:16;101598.06;;;12.55;72.64
64388;BME280;50709;52.648;4.764;2023-04-21T05:44:42;101573.59;;;12.56;72.89
64388;BME280;50709;52.648;4.764;2023-04-21T05:47:08;101597.09;;;12.36;72.88
64388;BME280;50709;52.648;4.764;2023-04-21T05:49:33;101597.22;;;12.62;72.34
64388;BME280;50709;52.648;4.764;2023-04-21T05:51:58;101592.94;;;12.77;73.22
64388;BME280;50709;52.648;4.764;2023-04-21T05:54:24;101572.03;;;12.91;72.63
64388;BME280;50709;52.648;4.764;2023-04-21T05:56:49;101585.38;;;13.53;70.70
64388;BME280;50709;52.648;4.764;2023-04-21T05:59:15;101592.38;;;13.68;69.81
64388;BME280;50709;52.648;4.764;2023-04-21T06:01:41;101573.16;;;13.78;69.01
64388;BME280;50709;52.648;4.764;2023-04-21T06:04:07;101585.41;;;13.76;69.03
64388;BME280;50709;52.648;4.764;2023-04-21T06:06:32;101574.75;;;13.12;70.37
64388;BME280;50709;52.648;4.764;2023-04-21T06:08:57;101588.91;;;13.79;68.92
64388;BME280;50709;52.648;4.764;2023-04-21T06:11:23;101594.03;;;13.25;70.90
64388;BME280;50709;52.648;4.764;2023-04-21T06:13:49;101562.59;;;13.42;69.08
64388;BME280;50709;52.648;4.764;2023-04-21T06:16:14;101583.50;;;13.15;70.53
64388;BME280;50709;52.648;4.764;2023-04-21T06:18:40;101566.13;;;13.83;68.88
64388;BME280;50709;52.648;4.764;2023-04-21T06:21:05;101581.88;;;14.16;67.16
64388;BME280;50709;52.648;4.764;2023-04-21T06:23:30;101577.50;;;13.67;68.04
64388;BME280;50709;52.648;4.764;2023-04-21T06:26:14;101569.63;;;13.63;69.15
64388;BME280;50709;52.648;4.764;2023-04-21T06:28:40;101574.88;;;13.67;68.46
64388;BME280;50709;52.648;4.764;2023-04-21T06:31:05;101584.44;;;13.34;69.97
64388;BME280;50709;52.648;4.764;2023-04-21T06:33:31;101593.28;;;13.71;70.07
64388;BME280;50709;52.648;4.764;2023-04-21T06:35:56;101577.53;;;13.73;68.61
64388;BME280;50709;52.648;4.764;2023-04-21T06:38:22;101564.41;;;13.93;68.10
64388;BME280;50709;52.648;4.764;2023-04-21T06:40:47;101580.13;;;14.30;66.65
64388;BME280;50709;52.648;4.764;2023-04-21T06:43:13;101581.88;;;13.55;67.77
64388;BME280;50709;52.648;4.764;2023-04-21T06:45:38;101583.66;;;14.21;66.94
64388;BME280;50709;52.648;4.764;2023-04-21T06:48:04;101572.19;;;13.34;68.79
64388;BME280;50709;52.648;4.764;2023-04-21T06:50:29;101574.88;;;13.53;68.57
64388;BME280;50709;52.648;4.764;2023-04-21T06:52:55;101569.63;;;13.68;68.22
64388;BME280;50709;52.648;4.764;2023-04-21T06:55:20;101581.00;;;13.59;69.62
64388;BME280;50709;52.648;4.764;2023-04-21T06:57:46;101570.50;;;13.95;67.87
64388;BME280;50709;52.648;4.764;2023-04-21T07:00:12;101586.28;;;13.69;69.01
64388;BME280;50709;52.648;4.764;2023-04-21T07:02:38;101578.38;;;13.52;69.28
64388;BME280;50709;52.648;4.764;2023-04-21T07:05:03;101589.56;;;13.06;70.44
64388;BME280;50709;52.648;4.764;2023-04-21T07:07:29;101588.84;;;13.55;68.97
64388;BME280;50709;52.648;4.764;2023-04-21T07:09:54;101576.66;;;14.06;68.11
64388;BME280;50709;52.648;4.764;2023-04-21T07:12:20;101584.53;;;13.66;68.49
64388;BME280;50709;52.648;4.764;2023-04-21T07:14:45;101588.88;;;14.18;67.56
64388;BME280;50709;52.648;4.764;2023-04-21T07:17:11;101569.50;;;13.14;69.39
64388;BME280;50709;52.648;4.764;2023-04-21T07:19:36;101583.66;;;13.95;68.18
64388;BME280;50709;52.648;4.764;2023-04-21T07:22:02;101572.28;;;13.84;67.64
64388;BME280;50709;52.648;4.764;2023-04-21T07:24:27;101576.63;;;13.57;68.56
64388;BME280;50709;52.648;4.764;2023-04-21T07:26:53;101582.66;;;13.34;67.61
64388;BME280;50709;52.648;4.764;2023-04-21T07:29:18;101583.59;;;13.56;70.16
64388;BME280;50709;52.648;4.764;2023-04-21T07:31:44;101568.75;;;13.61;69.06
64388;BME280;50709;52.648;4.764;2023-04-21T07:34:11;101581.00;;;13.87;68.30
64388;BME280;50709;52.648;4.764;2023-04-21T07:36:36;101577.50;;;13.50;69.02
64388;BME280;50709;52.648;4.764;2023-04-21T07:39:02;101562.63;;;14.04;68.13
64388;BME280;50709;52.648;4.764;2023-04-21T07:41:28;101584.41;;;13.23;70.31
64388;BME280;50709;52.648;4.764;2023-04-21T07:43:53;101580.13;;;13.59;69.74
64388;BME280;50709;52.648;4.764;2023-04-21T07:46:19;101565.13;;;13.22;69.54
64388;BME280;50709;52.648;4.764;2023-04-21T07:48:45;101592.25;;;13.21;70.34
64388;BME280;50709;52.648;4.764;2023-04-21T07:51:11;101586.00;;;12.87;72.38
64388;BME280;50709;52.648;4.764;2023-04-21T07:53:36;101573.97;;;13.51;70.50
64388;BME280;50709;52.648;4.764;2023-04-21T07:56:02;101564.41;;;13.94;68.25
64388;BME280;50709;52.648;4.764;2023-04-21T07:58:27;101581.75;;;13.13;69.63
64388;BME280;50709;52.648;4.764;2023-04-21T08:00:52;101576.56;;;13.35;70.59
64388;BME280;50709;52.648;4.764;2023-04-21T08:03:18;101592.34;;;13.44;70.26
64388;BME280;50709;52.648;4.764;2023-04-21T08:05:44;101569.66;;;13.84;69.20
64388;BME280;50709;52.648;4.764;2023-04-21T08:08:09;101573.16;;;13.70;68.43
64388;BME280;50709;52.648;4.764;2023-04-21T08:10:35;101600.28;;;14.08;67.27
64388;BME280;50709;52.648;4.764;2023-04-21T08:13:00;101573.53;;;12.45;71.30
64388;BME280;50709;52.648;4.764;2023-04-21T08:15:27;101592.25;;;13.27;70.70
64388;BME280;50709;52.648;4.764;2023-04-21T08:17:52;101576.53;;;13.26;70.34
64388;BME280;50709;52.648;4.764;2023-04-21T08:20:19;101574.88;;;13.51;69.83
64388;BME280;50709;52.648;4.764;2023-04-21T08:22:44;101584.38;;;13.18;70.69
64388;BME280;50709;52.648;4.764;2023-04-21T08:25:10;101569.66;;;13.60;69.90
64388;BME280;50709;52.648;4.764;2023-04-21T08:27:38;101590.59;;;13.46;68.93
64388;BME280;50709;52.648;4.764;2023-04-21T08:30:05;101564.38;;;13.70;68.31
64388;BME280;50709;52.648;4.764;2023-04-21T08:32:30;101581.00;;;13.87;68.93
64388;BME280;50709;52.648;4.764;2023-04-21T08:34:56;101574.03;;;14.08;67.57
64388;BME280;50709;52.648;4.764;2023-04-21T08:37:21;101575.78;;;13.81;68.67
64388;BME280;50709;52.648;4.764;2023-04-21T08:39:48;101573.09;;;13.56;67.26
64388;BME280;50709;52.648;4.764;2023-04-21T08:42:18;101584.47;;;13.51;69.07
64388;BME280;50709;52.648;4.764;2023-04-21T08:44:44;101581.84;;;13.52;69.03
64388;BME280;50709;52.648;4.764;2023-04-21T08:47:10;101583.66;;;13.86;69.08
64388;BME280;50709;52.648;4.764;2023-04-21T08:49:38;101591.47;;;13.39;69.01
64388;BME280;50709;52.648;4.764;2023-04-21T08:52:04;101587.13;;;13.58;67.93
64388;BME280;50709;52.648;4.764;2023-04-21T08:54:29;101588.03;;;13.60;68.55
64388;BME280;50709;52.648;4.764;2023-04-21T08:56:55;101588.91;;;14.15;67.91
64388;BME280;50709;52.648;4.764;2023-04-21T08:59:21;101595.03;;;13.65;69.58
64388;BME280;50709;52.648;4.764;2023-04-21T09:02:12;101603.78;;;13.96;69.08
64388;BME280;50709;52.648;4.764;2023-04-21T09:04:40;101584.53;;;14.02;69.53
64388;BME280;50709;52.648;4.764;2023-04-21T09:07:06;101571.38;;;13.71;69.70
64388;BME280;50709;52.648;4.764;2023-04-21T09:09:36;101579.25;;;14.28;67.92
64388;BME280;50709;52.648;4.764;2023-04-21T09:12:15;101581.00;;;13.64;69.40
64388;BME280;50709;52.648;4.764;2023-04-21T09:14:41;101602.00;;;13.59;70.07
64388;BME280;50709;52.648;4.764;2023-04-21T09:17:07;101594.16;;;14.03;69.39
64388;BME280;50709;52.648;4.764;2023-04-21T09:19:33;101588.91;;;13.81;69.06
64388;BME280;50709;52.648;4.764;2023-04-21T09:22:01;101619.47;;;13.43;70.24
64388;BME280;50709;52.648;4.764;2023-04-21T09:24:27;101592.41;;;14.08;68.87
64388;BME280;50709;52.648;4.764;2023-04-21T09:26:53;101581.03;;;13.90;68.63
64388;BME280;50709;52.648;4.764;2023-04-21T09:29:22;101594.97;;;14.51;68.06
64388;BME280;50709;52.648;4.764;2023-04-21T09:31:49;101590.66;;;13.82;69.46
64388;BME280;50709;52.648;4.764;2023-04-21T09:34:20;101591.53;;;14.01;70.07
64388;BME280;50709;52.648;4.764;2023-04-21T09:36:47;101602.91;;;14.05;69.67
64388;BME280;50709;52.648;4.764;2023-04-21T09:39:12;101601.16;;;13.87;69.12
64388;BME280;50709;52.648;4.764;2023-04-21T09:41:38;101601.09;;;13.42;71.01
64388;BME280;50709;52.648;4.764;2023-04-21T09:44:03;101581.91;;;13.99;69.50
64388;BME280;50709;52.648;4.764;2023-04-21T09:46:32;101592.28;;;13.34;70.66
64388;BME280;50709;52.648;4.764;2023-04-21T09:49:02;101578.38;;;13.75;70.22
64388;BME280;50709;52.648;4.764;2023-04-21T09:51:29;101582.78;;;13.98;70.07
64388;BME280;50709;52.648;4.764;2023-04-21T09:53:58;101539.88;;;13.89;69.25
64388;BME280;50709;52.648;4.764;2023-04-21T09:56:24;101570.50;;;14.15;69.39
64388;BME280;50709;52.648;4.764;2023-04-21T09:59:16;101580.09;;;14.39;69.39
64388;BME280;50709;52.648;4.764;2023-04-21T10:01:44;101569.63;;;14.22;67.97
64388;BME280;50709;52.648;4.764;2023-04-21T10:04:10;101570.47;;;14.30;67.73
64388;BME280;50709;52.648;4.764;2023-04-21T10:06:36;101568.72;;;14.36;68.50
64388;BME280;50709;52.648;4.764;2023-04-21T10:09:03;101575.75;;;14.18;67.97
64388;BME280;50709;52.648;4.764;2023-04-21T10:11:30;101576.63;;;14.39;69.09
64388;BME280;50709;52.648;4.764;2023-04-21T10:13:58;101572.25;;;14.18;69.07
64388;BME280;50709;52.648;4.764;2023-04-21T10:16:24;101563.53;;;13.95;69.72
64388;BME280;50709;52.648;4.764;2023-04-21T10:18:50;101533.75;;;13.39;69.44
64388;BME280;50709;52.648;4.764;2023-04-21T10:21:17;101557.34;;;14.34;68.16
64388;BME280;50709;52.648;4.764;2023-04-21T10:23:50;101545.91;;;14.59;67.08
64388;BME280;50709;52.648;4.764;2023-04-21T10:26:33;101546.81;;;14.46;67.57
64388;BME280;50709;52.648;4.764;2023-04-21T10:29:00;101546.75;;;14.74;67.80
64388;BME280;50709;52.648;4.764;2023-04-21T10:36:34;101565.22;;;14.27;69.13
64388;BME280;50709;52.648;4.764;2023-04-21T10:39:01;101566.09;;;14.25;68.23
64388;BME280;50709;52.648;4.764;2023-04-21T10:41:34;101521.34;;;14.62;66.96
64388;BME280;50709;52.648;4.764;2023-04-21T10:44:01;101542.47;;;14.22;67.09
64388;BME280;50709;52.648;4.764;2023-04-21T10:46:37;101552.09;;;14.26;66.81
64388;BME280;50709;52.648;4.764;2023-04-21T10:54:22;101531.97;;;14.22;65.47
64388;BME280;50709;52.648;4.764;2023-04-21T10:56:55;101533.44;;;15.08;65.24
64388;BME280;50709;52.648;4.764;2023-04-21T10:59:21;101540.38;;;15.18;65.33
64388;BME280;50709;52.648;4.764;2023-04-21T11:01:46;101551.06;;;14.86;64.75
64388;BME280;50709;52.648;4.764;2023-04-21T11:04:15;101547.66;;;14.65;66.26
64388;BME280;50709;52.648;4.764;2023-04-21T11:06:41;101546.69;;;14.89;67.14
64388;BME280;50709;52.648;4.764;2023-04-21T11:09:07;101541.19;;;15.33;64.73
64388;BME280;50709;52.648;4.764;2023-04-21T11:11:34;101524.69;;;15.03;63.85
64388;BME280;50709;52.648;4.764;2023-04-21T11:14:01;101544.69;;;15.35;64.61
64388;BME280;50709;52.648;4.764;2023-04-21T11:16:27;101536.66;;;15.52;64.94
64388;BME280;50709;52.648;4.764;2023-04-21T11:18:55;101513.88;;;15.47;66.49
64388;BME280;50709;52.648;4.764;2023-04-21T11:21:21;101514.13;;;15.10;66.95
64388;BME280;50709;52.648;4.764;2023-04-21T11:23:51;101517.28;;;15.62;65.53
64388;BME280;50709;52.648;4.764;2023-04-21T11:26:18;101513.66;;;15.77;65.71
64388;BME280;50709;52.648;4.764;2023-04-21T11:28:53;101522.41;;;15.84;64.34
64388;BME280;50709;52.648;4.764;2023-04-21T11:31:18;101505.53;;;16.05;62.38
64388;BME280;50709;52.648;4.764;2023-04-21T11:33:44;101508.53;;;15.57;64.13
64388;BME280;50709;52.648;4.764;2023-04-21T11:36:09;101513.28;;;15.07;64.49
64388;BME280;50709;52.648;4.764;2023-04-21T11:38:41;101514.81;;;15.42;65.28
64388;BME280;50709;52.648;4.764;2023-04-21T11:41:07;101501.69;;;15.37;64.88
64388;BME280;50709;52.648;4.764;2023-04-21T11:43:35;101495.66;;;15.18;65.79
64388;BME280;50709;52.648;4.764;2023-04-21T11:46:16;101495.16;;;15.86;65.00
64388;BME280;50709;52.648;4.764;2023-04-21T11:48:42;101494.47;;;15.59;62.92
64388;BME280;50709;52.648;4.764;2023-04-21T11:51:15;101479.66;;;15.46;63.60
64388;BME280;50709;52.648;4.764;2023-04-21T11:53:41;101479.63;;;15.49;62.44
64388;BME280;50709;52.648;4.764;2023-04-21T11:56:08;101470.31;;;15.06;63.38
64388;BME280;50709;52.648;4.764;2023-04-21T11:58:34;101449.88;;;15.41;62.87
64388;BME280;50709;52.648;4.764;2023-04-21T12:01:06;101479.28;;;15.92;63.66
64388;BME280;50709;52.648;4.764;2023-04-21T12:03:32;101479.34;;;15.86;63.63
64388;BME280;50709;52.648;4.764;2023-04-21T12:05:58;101481.38;;;15.52;63.95
64388;BME280;50709;52.648;4.764;2023-04-21T12:08:28;101458.06;;;15.02;63.14
64388;BME280;50709;52.648;4.764;2023-04-21T12:10:53;101465.56;;;15.53;62.78
64388;BME280;50709;52.648;4.764;2023-04-21T12:13:22;101474.63;;;15.20;64.58
64388;BME280;50709;52.648;4.764;2023-04-21T12:15:48;101477.63;;;15.77;62.42
64388;BME280;50709;52.648;4.764;2023-04-21T12:18:13;101468.06;;;15.70;62.94
64388;BME280;50709;52.648;4.764;2023-04-21T12:20:48;101459.13;;;15.91;62.16
64388;BME280;50709;52.648;4.764;2023-04-21T12:23:14;101454.13;;;15.56;61.19
64388;BME280;50709;52.648;4.764;2023-04-21T12:25:40;101427.84;;;15.54;62.51
64388;BME280;50709;52.648;4.764;2023-04-21T12:28:07;101450.88;;;16.21;62.40
64388;BME280;50709;52.648;4.764;2023-04-21T12:30:33;101456.56;;;15.84;60.09
64388;BME280;50709;52.648;4.764;2023-04-21T12:32:59;101441.50;;;15.95;60.56
64388;BME280;50709;52.648;4.764;2023-04-21T12:35:25;101433.28;;;16.24;60.47
64388;BME280;50709;52.648;4.764;2023-04-21T12:37:50;101423.56;;;16.29;60.68
64388;BME280;50709;52.648;4.764;2023-04-21T12:40:16;101437.97;;;15.97;59.76
64388;BME280;50709;52.648;4.764;2023-04-21T12:42:41;101436.41;;;15.78;59.80
64388;BME280;50709;52.648;4.764;2023-04-21T12:45:07;101424.25;;;16.45;58.69
64388;BME280;50709;52.648;4.764;2023-04-21T12:47:33;101392.88;;;16.24;59.17
64388;BME280;50709;52.648;4.764;2023-04-21T12:49:59;101426.88;;;15.63;59.54
64388;BME280;50709;52.648;4.764;2023-04-21T12:52:24;101425.97;;;15.67;58.68
64388;BME280;50709;52.648;4.764;2023-04-21T12:54:51;101403.88;;;15.84;61.42
64388;BME280;50709;52.648;4.764;2023-04-21T12:57:16;101405.16;;;16.26;58.82